Time;durP1;ratioP1;P1;durP2;ratioP2;P2;SDS_P1;SDS_P2;PMS_P1;PMS_P2;Temp;Humidity;BMP_temperature;BMP_pressure;BME280_temperature;BME280_humidity;BME280_pressure;Samples;Min_cycle;Max_cycle;Signal;HPM_P1;HPM_P2
2023/09/05 00:01:53;;;;;;;;;;;16.30;99.90;;;;;;4932345;29;20002;-65
2023/09/05 00:04:19;;;;;;;;;;;16.30;99.90;;;;;;4933156;28;19926;-65
2023/09/05 00:06:46;;;;;;;;;;;16.30;99.90;;;;;;4933136;28;20128;-66
2023/09/05 00:09:12;;;;;;;;;;;16.30;99.90;;;;;;4931348;29;19926;-65
2023/09/05 00:11:38;;;;;;;;;;;16.30;99.90;;;;;;4933060;29;19930;-65
2023/09/05 00:14:04;;;;;;;;;;;16.30;99.90;;;;;;4932169;29;20341;-65
2023/09/05 00:16:29;;;;;;;;;;;16.20;99.90;;;;;;4931141;29;20032;-65
2023/09/05 00:18:55;;;;;;;;;;;16.20;99.90;;;;;;4914427;29;20134;-65
2023/09/05 00:21:21;;;;;;;;;;;16.20;99.90;;;;;;4916781;29;19927;-66
2023/09/05 00:23:46;;;;;;;;;;;16.10;99.90;;;;;;4916646;29;20494;-66
2023/09/05 00:26:12;;;;;;;;;;;16.10;99.90;;;;;;4932850;29;20492;-66
2023/09/05 00:28:37;;;;;;;;;;;16.10;99.90;;;;;;4931650;29;19960;-66
2023/09/05 00:31:03;;;;;;;;;;;16.10;99.90;;;;;;4914180;29;20018;-66
2023/09/05 00:33:29;;;;;;;;;;;16.10;99.90;;;;;;4914801;29;19926;-65
2023/09/05 00:35:56;;;;;;;;;;;16.10;99.90;;;;;;4930247;29;19922;-65
2023/09/05 00:38:24;;;;;;;;;;;16.00;99.90;;;;;;4932778;28;20416;-65
2023/09/05 00:40:50;;;;;;;;;;;16.00;99.90;;;;;;4903227;29;21316;-65
2023/09/05 00:43:20;;;;;;;;;;;16.00;99.90;;;;;;4930327;29;19926;-65
2023/09/05 00:45:52;;;;;;;;;;;16.00;99.90;;;;;;4932556;28;19922;-65
2023/09/05 00:48:18;;;;;;;;;;;16.00;99.90;;;;;;4932575;28;20512;-65
2023/09/05 00:50:45;;;;;;;;;;;16.10;99.90;;;;;;4931068;29;20021;-66
2023/09/05 00:53:11;;;;;;;;;;;16.00;99.90;;;;;;4932070;29;20533;-66
2023/09/05 00:55:37;;;;;;;;;;;16.00;99.90;;;;;;4914469;29;19926;-66
2023/09/05 00:58:03;;;;;;;;;;;16.00;99.90;;;;;;4931211;29;20220;-66
2023/09/05 01:00:29;;;;;;;;;;;16.10;99.90;;;;;;4931590;28;19936;-66
2023/09/05 01:02:54;;;;;;;;;;;16.00;99.90;;;;;;4914255;29;20171;-64
2023/09/05 01:05:27;;;;;;;;;;;16.00;99.90;;;;;;4930686;29;20366;-65
2023/09/05 01:08:13;;;;;;;;;;;16.00;99.90;;;;;;4932423;28;20104;-66
2023/09/05 01:10:47;;;;;;;;;;;16.10;99.90;;;;;;4921812;29;20325;-65
2023/09/05 01:13:17;;;;;;;;;;;16.10;99.90;;;;;;4929492;29;20149;-66
2023/09/05 01:15:43;;;;;;;;;;;16.10;99.90;;;;;;4931743;29;19927;-65
2023/09/05 01:18:08;;;;;;;;;;;16.10;99.90;;;;;;4929933;29;19932;-65
2023/09/05 01:20:40;;;;;;;;;;;16.00;99.90;;;;;;4930284;29;19933;-65
2023/09/05 01:23:16;;;;;;;;;;;16.00;99.90;;;;;;4929791;29;19930;-65
2023/09/05 01:25:42;;;;;;;;;;;16.00;99.90;;;;;;4929372;29;19961;-66
2023/09/05 01:28:11;;;;;;;;;;;16.10;99.90;;;;;;4930186;29;20663;-65
2023/09/05 01:30:41;;;;;;;;;;;16.10;99.90;;;;;;4916078;29;20179;-66
2023/09/05 01:33:06;;;;;;;;;;;16.20;99.90;;;;;;4930269;29;19969;-65
2023/09/05 01:35:32;;;;;;;;;;;16.20;99.90;;;;;;4929530;29;19926;-65
2023/09/05 01:37:57;;;;;;;;;;;16.20;99.90;;;;;;4898245;29;20005;-65
2023/09/05 01:40:23;;;;;;;;;;;16.30;99.90;;;;;;4931116;29;19922;-65
2023/09/05 01:42:49;;;;;;;;;;;16.30;99.90;;;;;;4930379;29;20404;-65
2023/09/05 01:45:14;;;;;;;;;;;16.30;99.90;;;;;;4932311;28;19929;-66
2023/09/05 01:47:40;;;;;;;;;;;16.40;99.90;;;;;;4928894;29;20108;-65
2023/09/05 01:50:06;;;;;;;;;;;16.50;99.90;;;;;;4913584;29;19922;-64
2023/09/05 01:52:31;;;;;;;;;;;16.50;99.90;;;;;;4928995;29;19922;-66
2023/09/05 01:54:57;;;;;;;;;;;16.60;99.90;;;;;;4931046;28;19922;-66
2023/09/05 01:57:22;;;;;;;;;;;16.70;99.90;;;;;;4929993;29;20083;-65
2023/09/05 01:59:48;;;;;;;;;;;16.90;99.90;;;;;;4929936;29;19926;-65
2023/09/05 02:02:13;;;;;;;;;;;16.90;99.90;;;;;;4931712;29;19926;-66
2023/09/05 02:04:39;;;;;;;;;;;17.00;99.90;;;;;;4930751;29;20183;-66
2023/09/05 02:07:08;;;;;;;;;;;17.10;99.90;;;;;;4929269;29;20016;-66
2023/09/05 02:09:35;;;;;;;;;;;17.20;99.90;;;;;;4914081;29;20008;-65
2023/09/05 02:12:01;;;;;;;;;;;17.20;99.90;;;;;;4931574;29;19922;-65
2023/09/05 02:14:26;;;;;;;;;;;17.20;99.90;;;;;;4931200;28;19930;-65
2023/09/05 02:16:52;;;;;;;;;;;17.20;99.90;;;;;;4930719;28;20365;-65
2023/09/05 02:19:19;;;;;;;;;;;17.30;99.90;;;;;;4913978;29;19922;-66
2023/09/05 02:21:44;;;;;;;;;;;17.30;99.90;;;;;;4928958;29;20070;-66
2023/09/05 02:24:10;;;;;;;;;;;17.30;99.90;;;;;;4929412;29;20126;-66
2023/09/05 02:26:37;;;;;;;;;;;17.30;99.90;;;;;;4930336;29;20482;-66
2023/09/05 02:29:02;;;;;;;;;;;17.30;99.90;;;;;;4928957;29;19922;-66
2023/09/05 02:31:28;;;;;;;;;;;17.30;99.90;;;;;;4913794;29;20209;-66
2023/09/05 02:33:54;;;;;;;;;;;17.30;99.90;;;;;;4931267;28;20320;-66
2023/09/05 02:36:20;;;;;;;;;;;17.30;99.90;;;;;;4929194;29;20420;-64
2023/09/05 02:38:46;;;;;;;;;;;17.30;99.90;;;;;;4931181;28;20041;-66
2023/09/05 02:41:16;;;;;;;;;;;17.30;99.90;;;;;;4930461;29;20315;-66
2023/09/05 02:43:41;;;;;;;;;;;17.30;99.90;;;;;;4929553;29;19981;-66
2023/09/05 02:46:08;;;;;;;;;;;17.30;99.90;;;;;;4914790;29;20387;-66
2023/09/05 02:48:38;;;;;;;;;;;17.20;99.90;;;;;;4903372;29;20172;-66
2023/09/05 02:51:04;;;;;;;;;;;17.20;99.90;;;;;;4949540;28;19922;-64
2023/09/05 02:53:30;;;;;;;;;;;17.10;99.90;;;;;;4935980;28;20164;-66
2023/09/05 02:55:56;;;;;;;;;;;17.00;99.90;;;;;;4934159;29;20163;-65
2023/09/05 02:58:21;;;;;;;;;;;16.90;99.90;;;;;;4915591;29;20005;-65
2023/09/05 03:00:50;;;;;;;;;;;16.90;99.90;;;;;;4932591;29;20384;-65
2023/09/05 03:03:16;;;;;;;;;;;16.90;99.90;;;;;;4931750;29;20418;-65
2023/09/05 03:05:42;;;;;;;;;;;16.80;99.90;;;;;;4933762;29;20372;-65
2023/09/05 03:08:08;;;;;;;;;;;16.80;99.90;;;;;;4934183;28;20090;-65
2023/09/05 03:10:34;;;;;;;;;;;16.80;99.90;;;;;;4933580;29;19930;-66
2023/09/05 03:12:59;;;;;;;;;;;16.70;99.90;;;;;;4933049;29;20869;-65
2023/09/05 03:15:25;;;;;;;;;;;16.80;99.90;;;;;;4934595;29;20743;-65
2023/09/05 03:17:51;;;;;;;;;;;16.70;99.90;;;;;;4919078;29;20477;-66
2023/09/05 03:20:18;;;;;;;;;;;16.60;99.90;;;;;;4933147;29;19922;-65
2023/09/05 03:22:44;;;;;;;;;;;16.60;99.90;;;;;;4933505;29;19933;-65
2023/09/05 03:25:09;;;;;;;;;;;16.50;99.90;;;;;;4932104;29;19922;-66
2023/09/05 03:27:36;;;;;;;;;;;16.40;99.90;;;;;;4931192;29;19986;-66
2023/09/05 03:30:02;;;;;;;;;;;16.30;99.90;;;;;;4932124;29;19922;-66
2023/09/05 03:32:27;;;;;;;;;;;16.20;99.90;;;;;;4932950;29;19922;-66
2023/09/05 03:34:53;;;;;;;;;;;16.20;99.90;;;;;;4931908;29;19956;-66
2023/09/05 03:37:19;;;;;;;;;;;16.20;99.90;;;;;;4918369;29;19937;-66
2023/09/05 03:39:44;;;;;;;;;;;16.20;99.90;;;;;;4931827;29;20114;-66
2023/09/05 03:42:10;;;;;;;;;;;16.10;99.90;;;;;;4916628;29;20013;-66
2023/09/05 03:44:36;;;;;;;;;;;16.10;99.90;;;;;;4931772;29;20378;-66
2023/09/05 03:47:01;;;;;;;;;;;16.10;99.90;;;;;;4931607;29;19922;-66
2023/09/05 03:49:27;;;;;;;;;;;16.10;99.90;;;;;;4930452;29;20066;-66
2023/09/05 03:51:57;;;;;;;;;;;16.10;99.90;;;;;;4932445;29;19927;-66
2023/09/05 03:54:22;;;;;;;;;;;16.10;99.90;;;;;;4930404;29;20099;-66
2023/09/05 03:56:48;;;;;;;;;;;16.10;99.90;;;;;;4930769;29;20217;-66
2023/09/05 03:59:14;;;;;;;;;;;16.00;99.90;;;;;;4933070;28;20396;-66
2023/09/05 04:01:39;;;;;;;;;;;16.00;99.90;;;;;;4930976;29;19930;-66
2023/09/05 04:04:07;;;;;;;;;;;16.00;99.90;;;;;;4918601;29;19965;-66
2023/09/05 04:06:33;;;;;;;;;;;15.90;99.90;;;;;;4931318;29;20014;-66
2023/09/05 04:08:59;;;;;;;;;;;16.00;99.90;;;;;;4914865;29;19926;-66
2023/09/05 04:11:24;;;;;;;;;;;16.00;99.90;;;;;;4931637;29;20207;-65
2023/09/05 04:13:50;;;;;;;;;;;16.00;99.90;;;;;;4930470;29;20090;-66
2023/09/05 04:16:15;;;;;;;;;;;15.90;99.90;;;;;;4931777;29;20158;-65
2023/09/05 04:18:41;;;;;;;;;;;15.80;99.90;;;;;;4932779;29;19922;-65
2023/09/05 04:21:07;;;;;;;;;;;15.80;99.90;;;;;;4930966;29;20170;-66
2023/09/05 04:23:32;;;;;;;;;;;15.70;99.90;;;;;;4931815;29;19922;-66
2023/09/05 04:25:59;;;;;;;;;;;15.60;99.90;;;;;;4931032;29;19926;-66
2023/09/05 04:28:25;;;;;;;;;;;15.60;99.90;;;;;;4932103;28;19934;-66
2023/09/05 04:30:51;;;;;;;;;;;15.50;99.90;;;;;;4917692;29;20082;-65
2023/09/05 04:33:17;;;;;;;;;;;15.40;99.90;;;;;;4930971;29;19922;-66
2023/09/05 04:35:42;;;;;;;;;;;15.30;99.90;;;;;;4931384;29;20462;-66
2023/09/05 04:38:09;;;;;;;;;;;15.20;99.90;;;;;;4931283;29;20116;-66
2023/09/05 04:40:34;;;;;;;;;;;15.10;99.90;;;;;;4933373;28;20431;-66
2023/09/05 04:43:01;;;;;;;;;;;15.10;99.90;;;;;;4930097;29;20007;-66
2023/09/05 04:45:27;;;;;;;;;;;15.00;99.90;;;;;;4931982;29;20336;-65
2023/09/05 04:47:52;;;;;;;;;;;14.90;99.90;;;;;;4900771;29;19925;-66
2023/09/05 04:50:18;;;;;;;;;;;14.70;99.90;;;;;;4931071;29;20122;-66
2023/09/05 04:52:43;;;;;;;;;;;14.80;99.90;;;;;;4931915;29;20226;-66
2023/09/05 04:55:09;;;;;;;;;;;14.60;99.90;;;;;;4931352;29;21154;-66
2023/09/05 04:57:34;;;;;;;;;;;14.60;99.90;;;;;;4930039;29;19948;-66
2023/09/05 05:00:00;;;;;;;;;;;14.60;99.90;;;;;;4929138;29;20460;-66
2023/09/05 05:02:26;;;;;;;;;;;14.60;99.90;;;;;;4915447;29;19926;-66
2023/09/05 05:04:53;;;;;;;;;;;14.60;99.90;;;;;;4932461;28;20092;-66
2023/09/05 05:07:19;;;;;;;;;;;14.70;99.90;;;;;;4914989;29;20017;-65
2023/09/05 05:09:45;;;;;;;;;;;14.90;99.90;;;;;;4930888;28;19923;-65
2023/09/05 05:12:10;;;;;;;;;;;15.00;99.90;;;;;;4930678;29;19928;-65
2023/09/05 05:14:36;;;;;;;;;;;15.20;99.90;;;;;;4931870;28;19922;-65
2023/09/05 05:17:02;;;;;;;;;;;15.20;99.90;;;;;;4929860;29;20021;-65
2023/09/05 05:19:27;;;;;;;;;;;15.20;99.90;;;;;;4930417;29;19922;-65
2023/09/05 05:21:53;;;;;;;;;;;15.30;99.90;;;;;;4929745;29;19966;-65
2023/09/05 05:24:19;;;;;;;;;;;15.40;99.90;;;;;;4896056;29;19933;-64
2023/09/05 05:26:45;;;;;;;;;;;15.40;99.90;;;;;;4927880;29;19922;-65
2023/09/05 05:29:10;;;;;;;;;;;15.50;99.90;;;;;;4930826;28;19932;-65
2023/09/05 05:31:36;;;;;;;;;;;15.60;99.90;;;;;;4929609;29;19930;-65
2023/09/05 05:34:02;;;;;;;;;;;15.80;99.90;;;;;;4926271;29;19949;-65
2023/09/05 05:36:29;;;;;;;;;;;16.00;99.90;;;;;;4927329;29;19993;-65
2023/09/05 05:38:58;;;;;;;;;;;16.00;99.90;;;;;;4927943;29;19948;-65
2023/09/05 05:41:24;;;;;;;;;;;16.10;99.90;;;;;;4930668;29;20343;-65
2023/09/05 05:43:50;;;;;;;;;;;16.20;99.90;;;;;;4929236;29;19922;-66
2023/09/05 05:46:18;;;;;;;;;;;16.20;99.90;;;;;;4928273;28;19949;-66
2023/09/05 05:48:46;;;;;;;;;;;16.30;99.90;;;;;;4928986;29;19985;-66
2023/09/05 05:51:13;;;;;;;;;;;16.50;99.90;;;;;;4926957;29;19922;-66
2023/09/05 05:53:38;;;;;;;;;;;16.90;99.90;;;;;;4928683;29;20569;-66
2023/09/05 05:56:04;;;;;;;;;;;17.30;99.90;;;;;;4932519;29;19952;-66
2023/09/05 05:58:30;;;;;;;;;;;17.70;99.90;;;;;;4932985;29;19957;-64
2023/09/05 06:00:57;;;;;;;;;;;17.90;99.90;;;;;;4934072;28;20221;-66
2023/09/05 06:03:23;;;;;;;;;;;18.20;99.90;;;;;;4933233;29;20278;-66
2023/09/05 06:05:50;;;;;;;;;;;18.60;99.90;;;;;;4916330;29;20215;-66
2023/09/05 06:08:15;;;;;;;;;;;18.70;99.90;;;;;;4933185;29;19922;-65
2023/09/05 06:10:41;;;;;;;;;;;18.90;99.90;;;;;;4932153;29;19985;-65
2023/09/05 06:13:07;;;;;;;;;;;19.00;99.90;;;;;;4933688;29;19972;-66
2023/09/05 06:15:33;;;;;;;;;;;19.00;99.90;;;;;;4917040;29;19932;-65
2023/09/05 06:18:00;;;;;;;;;;;19.00;99.90;;;;;;4932805;29;19929;-65
2023/09/05 06:20:25;;;;;;;;;;;18.90;99.90;;;;;;4929673;29;20349;-65
2023/09/05 06:22:51;;;;;;;;;;;18.90;99.90;;;;;;4917134;29;19946;-65
2023/09/05 06:25:16;;;;;;;;;;;19.00;99.90;;;;;;4930423;29;19929;-65
2023/09/05 06:27:43;;;;;;;;;;;19.10;99.90;;;;;;4931366;29;19926;-65
2023/09/05 06:30:12;;;;;;;;;;;19.20;99.90;;;;;;4931598;29;20238;-65
2023/09/05 06:32:38;;;;;;;;;;;19.30;99.90;;;;;;4931654;29;20013;-66
2023/09/05 06:35:07;;;;;;;;;;;19.30;99.90;;;;;;4934648;28;19981;-66
2023/09/05 06:37:36;;;;;;;;;;;19.50;99.90;;;;;;4934531;29;20077;-66
2023/09/05 06:40:09;;;;;;;;;;;19.70;99.90;;;;;;4932484;29;20439;-66
2023/09/05 06:42:36;;;;;;;;;;;19.90;99.90;;;;;;4933142;29;19926;-65
2023/09/05 06:45:02;;;;;;;;;;;20.20;99.90;;;;;;4931882;29;19994;-66
2023/09/05 06:47:28;;;;;;;;;;;20.50;99.90;;;;;;4935522;28;20231;-66
2023/09/05 06:49:53;;;;;;;;;;;20.80;99.90;;;;;;4932194;29;20198;-66
2023/09/05 06:52:19;;;;;;;;;;;21.00;99.90;;;;;;4933534;29;19976;-66
2023/09/05 06:54:44;;;;;;;;;;;21.20;99.90;;;;;;4947853;28;19922;-65
2023/09/05 06:57:10;;;;;;;;;;;21.30;99.90;;;;;;4934282;29;19958;-66
2023/09/05 06:59:36;;;;;;;;;;;21.50;99.90;;;;;;4935783;29;20154;-65
2023/09/05 07:02:02;;;;;;;;;;;21.80;99.90;;;;;;4936977;29;19937;-65
2023/09/05 07:04:31;;;;;;;;;;;22.00;99.90;;;;;;4936380;29;19973;-65
2023/09/05 07:06:57;;;;;;;;;;;22.10;99.90;;;;;;4936007;29;20088;-65
2023/09/05 07:09:23;;;;;;;;;;;22.20;99.90;;;;;;4937085;28;19997;-66
2023/09/05 07:11:48;;;;;;;;;;;22.10;99.90;;;;;;4939436;29;19930;-65
2023/09/05 07:14:14;;;;;;;;;;;22.30;99.90;;;;;;4946133;29;19925;-66
2023/09/05 07:16:39;;;;;;;;;;;22.40;97.90;;;;;;4946543;29;19981;-66
2023/09/05 07:19:05;;;;;;;;;;;22.40;72.90;;;;;;4947866;29;19926;-65
2023/09/05 07:21:30;;;;;;;;;;;22.40;75.90;;;;;;4930505;29;20333;-66
2023/09/05 07:23:58;;;;;;;;;;;22.50;70.50;;;;;;4940920;29;19926;-66
2023/09/05 07:26:23;;;;;;;;;;;22.80;99.90;;;;;;4946309;28;19919;-65
2023/09/05 07:28:49;;;;;;;;;;;23.00;91.40;;;;;;4945924;29;20283;-65
2023/09/05 07:34:20;;;;;;;;;;;23.40;99.90;;;;;;4945077;29;19926;-64
2023/09/05 07:36:46;;;;;;;;;;;23.50;80.40;;;;;;4946326;29;20415;-65
2023/09/05 07:39:11;;;;;;;;;;;23.60;56.50;;;;;;4944734;29;20088;-65
2023/09/05 07:41:38;;;;;;;;;;;23.80;87.80;;;;;;4941975;29;20062;-65
2023/09/05 07:44:04;;;;;;;;;;;24.00;28.70;;;;;;4944552;29;19923;-65
2023/09/05 07:46:30;;;;;;;;;;;23.70;3.20;;;;;;4942513;29;19946;-68
2023/09/05 07:48:55;;;;;;;;;;;23.90;20.40;;;;;;4945366;29;19918;-66
2023/09/05 07:51:24;;;;;;;;;;;24.10;38.20;;;;;;4944666;29;20001;-65
2023/09/05 07:54:10;;;;;;;;;;;24.30;44.80;;;;;;4927502;29;19922;-66
2023/09/05 07:56:36;;;;;;;;;;;24.70;33.60;;;;;;4944743;29;19922;-66
2023/09/05 07:59:02;;;;;;;;;;;24.90;8.10;;;;;;4942731;29;19929;-66
2023/09/05 08:01:28;;;;;;;;;;;25.20;24.90;;;;;;4942252;29;19926;-65
2023/09/05 08:03:53;;;;;;;;;;;25.10;8.80;;;;;;4926495;29;20428;-66
2023/09/05 08:06:20;;;;;;;;;;;24.80;7.50;;;;;;4943012;29;19923;-66
2023/09/05 08:08:45;;;;;;;;;;;24.30;19.10;;;;;;4943285;29;20399;-66
2023/09/05 08:11:11;;;;;;;;;;;24.00;26.20;;;;;;4927912;29;19929;-65
2023/09/05 08:13:36;;;;;;;;;;;23.70;29.10;;;;;;4943308;29;19927;-65
2023/09/05 08:16:02;;;;;;;;;;;23.40;42.40;;;;;;4928076;29;20456;-65
2023/09/05 08:18:28;;;;;;;;;;;23.30;43.60;;;;;;4943143;29;20183;-65
2023/09/05 08:20:56;;;;;;;;;;;23.30;49.70;;;;;;4942771;29;19923;-66
2023/09/05 08:23:22;;;;;;;;;;;23.20;54.10;;;;;;4941485;29;20018;-65
2023/09/05 08:25:51;;;;;;;;;;;23.40;40.20;;;;;;4942169;29;19930;-65
2023/09/05 08:28:19;;;;;;;;;;;23.40;47.00;;;;;;4942172;29;19951;-65
2023/09/05 08:30:45;;;;;;;;;;;23.50;50.70;;;;;;4942285;29;19922;-64
2023/09/05 08:33:10;;;;;;;;;;;23.50;37.10;;;;;;4926198;29;20418;-66
2023/09/05 08:35:37;;;;;;;;;;;23.50;42.20;;;;;;4927157;29;19926;-66
2023/09/05 08:38:04;;;;;;;;;;;23.60;36.50;;;;;;4942688;29;19925;-66
2023/09/05 08:40:32;;;;;;;;;;;23.70;34.70;;;;;;4942301;29;19977;-66
2023/09/05 08:42:58;;;;;;;;;;;23.60;47.40;;;;;;4945523;28;19927;-66
2023/09/05 08:45:23;;;;;;;;;;;23.70;42.50;;;;;;4941652;28;20283;-65
2023/09/05 08:47:50;;;;;;;;;;;23.90;44.00;;;;;;4942200;29;19922;-66
2023/09/05 08:50:16;;;;;;;;;;;24.20;44.70;;;;;;4944920;29;20304;-66
2023/09/05 08:52:42;;;;;;;;;;;24.60;33.40;;;;;;4925833;29;19998;-66
2023/09/05 08:55:08;;;;;;;;;;;24.80;22.50;;;;;;4942963;29;19922;-66
2023/09/05 08:57:35;;;;;;;;;;;24.70;21.80;;;;;;4941351;29;20636;-66
2023/09/05 09:00:05;;;;;;;;;;;24.70;27.50;;;;;;4942793;29;19922;-66
2023/09/05 09:02:30;;;;;;;;;;;24.90;29.40;;;;;;4957082;28;19934;-66
2023/09/05 09:04:56;;;;;;;;;;;25.00;25.00;;;;;;4925430;29;20415;-66
2023/09/05 09:07:24;;;;;;;;;;;24.90;20.80;;;;;;4941010;29;19928;-66
2023/09/05 09:09:50;;;;;;;;;;;24.90;24.70;;;;;;4939370;29;19922;-65
2023/09/05 09:12:15;;;;;;;;;;;24.90;24.60;;;;;;4942080;29;19929;-65
2023/09/05 09:14:43;;;;;;;;;;;24.90;22.30;;;;;;4944397;29;19922;-64
2023/09/05 09:17:08;;;;;;;;;;;24.70;28.80;;;;;;4941982;29;19930;-66
2023/09/05 09:19:37;;;;;;;;;;;24.90;31.60;;;;;;4926333;29;20207;-65
2023/09/05 09:22:03;;;;;;;;;;;24.90;28.00;;;;;;4943178;29;20317;-66
2023/09/05 09:24:35;;;;;;;;;;;24.90;37.20;;;;;;4942990;29;19922;-65
2023/09/05 09:27:02;;;;;;;;;;;25.20;35.00;;;;;;4942304;29;19957;-66
2023/09/05 09:29:28;;;;;;;;;;;25.40;21.80;;;;;;4926218;29;19922;-65
2023/09/05 09:32:00;;;;;;;;;;;25.60;19.70;;;;;;4943057;29;19929;-66
2023/09/05 09:34:26;;;;;;;;;;;25.60;14.80;;;;;;4943077;29;19963;-66
2023/09/05 09:36:52;;;;;;;;;;;25.50;19.30;;;;;;4943380;29;19923;-66
2023/09/05 09:39:18;;;;;;;;;;;25.50;22.40;;;;;;4941518;29;20341;-66
2023/09/05 09:41:46;;;;;;;;;;;25.60;19.30;;;;;;4942602;29;19973;-67
2023/09/05 09:44:28;;;;;;;;;;;25.70;20.90;;;;;;4943413;29;19922;-66
2023/09/05 09:46:54;;;;;;;;;;;25.90;16.60;;;;;;4927157;29;20024;-67
2023/09/05 09:49:20;;;;;;;;;;;26.10;15.40;;;;;;4927241;29;20390;-65
2023/09/05 09:51:51;;;;;;;;;;;26.10;17.10;;;;;;4925461;29;19923;-66
2023/09/05 09:54:17;;;;;;;;;;;26.30;9.10;;;;;;4943161;29;20325;-65
2023/09/05 09:56:44;;;;;;;;;;;26.40;9.80;;;;;;4945688;28;19922;-65
2023/09/05 09:59:11;;;;;;;;;;;26.60;3.10;;;;;;4948446;28;19957;-65
2023/09/05 10:01:38;;;;;;;;;;;26.50;4.70;;;;;;4946014;29;20278;-66
2023/09/05 10:04:04;;;;;;;;;;;26.50;1.00;;;;;;4947520;29;19922;-67
2023/09/05 10:06:29;;;;;;;;;;;26.60;1.00;;;;;;4930275;29;19926;-66
2023/09/05 10:08:55;;;;;;;;;;;26.60;1.00;;;;;;4948763;28;20381;-66
2023/09/05 10:11:21;;;;;;;;;;;26.50;1.00;;;;;;4946762;29;20338;-68
2023/09/05 10:13:48;;;;;;;;;;;26.50;1.00;;;;;;4948385;28;20408;-66
2023/09/05 10:16:15;;;;;;;;;;;26.60;1.00;;;;;;4929119;29;19925;-66
2023/09/05 10:18:43;;;;;;;;;;;26.70;1.00;;;;;;4946521;29;19922;-66
2023/09/05 10:21:09;;;;;;;;;;;27.00;1.00;;;;;;4945795;29;19965;-68
2023/09/05 10:23:36;;;;;;;;;;;27.20;1.00;;;;;;4946110;29;20037;-66
2023/09/05 10:26:03;;;;;;;;;;;27.50;1.00;;;;;;4945610;29;20016;-66
2023/09/05 10:28:29;;;;;;;;;;;27.90;1.00;;;;;;4946689;29;19973;-65
2023/09/05 10:31:04;;;;;;;;;;;28.10;1.00;;;;;;4946601;29;19965;-67
2023/09/05 10:33:36;;;;;;;;;;;27.90;1.00;;;;;;4945572;29;20244;-68
2023/09/05 10:36:03;;;;;;;;;;;27.90;1.00;;;;;;4929498;29;19956;-65
2023/09/05 10:38:32;;;;;;;;;;;28.30;1.00;;;;;;4945059;29;20441;-66
2023/09/05 10:40:57;;;;;;;;;;;28.30;1.00;;;;;;4944796;29;20577;-67
2023/09/05 10:43:23;;;;;;;;;;;28.50;1.00;;;;;;4912977;29;20084;-66
2023/09/05 10:45:59;;;;;;;;;;;28.60;1.00;;;;;;4944982;29;19922;-66
2023/09/05 10:48:45;;;;;;;;;;;28.70;1.00;;;;;;4929505;29;19918;-66
2023/09/05 10:51:12;;;;;;;;;;;29.00;1.00;;;;;;4944584;29;20009;-66
2023/09/05 10:53:38;;;;;;;;;;;29.20;1.00;;;;;;4944438;29;19985;-66
2023/09/05 10:56:04;;;;;;;;;;;29.50;1.00;;;;;;4944471;29;20032;-67
2023/09/05 10:58:36;;;;;;;;;;;29.40;1.00;;;;;;4947159;29;20170;-66
2023/09/05 11:01:01;;;;;;;;;;;29.30;1.00;;;;;;4946735;29;20448;-66
2023/09/05 11:03:34;;;;;;;;;;;29.20;1.00;;;;;;4944220;29;19922;-67
2023/09/05 11:06:09;;;;;;;;;;;29.20;1.00;;;;;;4927772;29;19957;-66
2023/09/05 11:08:35;;;;;;;;;;;29.30;1.00;;;;;;4928250;29;20017;-67
2023/09/05 11:11:00;;;;;;;;;;;29.10;1.00;;;;;;4945155;29;20013;-68
2023/09/05 11:13:27;;;;;;;;;;;29.10;1.00;;;;;;4944789;29;19918;-66
2023/09/05 11:15:59;;;;;;;;;;;29.20;1.00;;;;;;4944602;29;19918;-67
2023/09/05 11:18:24;;;;;;;;;;;29.20;1.00;;;;;;4944807;29;19929;-65
2023/09/05 11:20:50;;;;;;;;;;;28.70;1.00;;;;;;4947489;29;19922;-66
2023/09/05 11:23:17;;;;;;;;;;;28.80;1.00;;;;;;4945685;29;19930;-67
2023/09/05 11:25:55;;;;;;;;;;;29.50;1.00;;;;;;4945657;29;20013;-66
2023/09/05 11:28:24;;;;;;;;;;;29.50;1.00;;;;;;4944649;29;19926;-65
2023/09/05 11:30:56;;;;;;;;;;;29.70;1.00;;;;;;4945057;29;20324;-66
2023/09/05 11:33:22;;;;;;;;;;;30.00;1.00;;;;;;4946764;28;19922;-68
2023/09/05 11:35:49;;;;;;;;;;;30.10;1.00;;;;;;4945938;28;20131;-65
2023/09/05 11:38:15;;;;;;;;;;;29.90;1.00;;;;;;4944955;29;19922;-67
2023/09/05 11:40:50;;;;;;;;;;;29.80;1.00;;;;;;4945106;29;20021;-66
2023/09/05 11:43:16;;;;;;;;;;;29.80;1.00;;;;;;4944352;29;20241;-67
2023/09/05 11:45:43;;;;;;;;;;;29.80;1.00;;;;;;4945242;29;20289;-67
2023/09/05 11:48:11;;;;;;;;;;;29.70;1.00;;;;;;4946758;28;20044;-66
2023/09/05 11:50:40;;;;;;;;;;;29.60;1.00;;;;;;4945396;29;19922;-67
2023/09/05 11:53:10;;;;;;;;;;;29.80;1.00;;;;;;4944712;29;20118;-66
2023/09/05 11:55:36;;;;;;;;;;;30.10;1.00;;;;;;4945479;29;19933;-66
2023/09/05 11:58:02;;;;;;;;;;;30.10;1.00;;;;;;4945108;29;19922;-66
2023/09/05 12:00:27;;;;;;;;;;;30.20;1.00;;;;;;4945537;29;19922;-67
2023/09/05 12:02:55;;;;;;;;;;;30.40;1.00;;;;;;4944269;29;20282;-67
2023/09/05 12:05:21;;;;;;;;;;;30.80;1.00;;;;;;4946104;28;19918;-67
2023/09/05 12:07:50;;;;;;;;;;;30.90;1.00;;;;;;4919837;29;19993;-66
2023/09/05 12:10:16;;;;;;;;;;;31.20;1.00;;;;;;4958997;28;20538;-66
2023/09/05 12:12:55;;;;;;;;;;;31.00;1.00;;;;;;4926651;29;20041;-66
2023/09/05 12:15:30;;;;;;;;;;;30.90;1.00;;;;;;4944546;29;19929;-67
2023/09/05 12:17:56;;;;;;;;;;;30.70;1.00;;;;;;4945239;29;20021;-67
2023/09/05 12:20:23;;;;;;;;;;;31.00;1.00;;;;;;4942835;28;19969;-67
2023/09/05 12:22:48;;;;;;;;;;;31.10;1.00;;;;;;4943037;29;19937;-66
2023/09/05 12:25:15;;;;;;;;;;;31.60;1.00;;;;;;4942795;29;19997;-67
2023/09/05 12:27:42;;;;;;;;;;;31.80;1.00;;;;;;4944313;28;19985;-67
2023/09/05 12:30:09;;;;;;;;;;;31.90;1.00;;;;;;4942206;29;19926;-67
2023/09/05 12:32:35;;;;;;;;;;;32.30;1.00;;;;;;4943629;29;19925;-66
2023/09/05 12:35:01;;;;;;;;;;;32.00;1.00;;;;;;4944308;28;20097;-67
2023/09/05 12:37:27;;;;;;;;;;;32.10;1.00;;;;;;4944501;28;20325;-68
2023/09/05 12:39:56;;;;;;;;;;;32.20;1.00;;;;;;4942248;29;20412;-65
2023/09/05 12:42:22;;;;;;;;;;;32.00;1.00;;;;;;4941926;29;19997;-66
2023/09/05 12:44:48;;;;;;;;;;;31.60;1.00;;;;;;4943878;29;19985;-66
2023/09/05 12:47:14;;;;;;;;;;;31.40;1.00;;;;;;4943716;29;20327;-66
2023/09/05 12:49:42;;;;;;;;;;;31.50;1.00;;;;;;4958089;28;19918;-67
2023/09/05 12:52:07;;;;;;;;;;;31.60;1.00;;;;;;4942828;28;19923;-67
2023/09/05 12:54:33;;;;;;;;;;;31.60;1.00;;;;;;4943106;29;19941;-68
2023/09/05 12:56:58;;;;;;;;;;;31.80;1.00;;;;;;4943011;29;19969;-67
2023/09/05 12:59:24;;;;;;;;;;;32.00;1.00;;;;;;4942803;29;20017;-67
2023/09/05 13:01:52;;;;;;;;;;;32.20;1.00;;;;;;4941570;29;19937;-67
2023/09/05 13:04:19;;;;;;;;;;;32.10;1.00;;;;;;4940201;29;20033;-67
2023/09/05 13:06:47;;;;;;;;;;;32.10;1.00;;;;;;4943397;29;19932;-67
2023/09/05 13:09:13;;;;;;;;;;;31.40;1.00;;;;;;4942368;29;19929;-67
2023/09/05 13:11:39;;;;;;;;;;;31.60;1.00;;;;;;4942707;29;19926;-65
2023/09/05 13:14:04;;;;;;;;;;;31.50;1.00;;;;;;4941118;29;20308;-65
2023/09/05 13:16:31;;;;;;;;;;;31.50;1.00;;;;;;4940023;29;19922;-65
2023/09/05 13:18:57;;;;;;;;;;;31.20;1.00;;;;;;4940837;28;19993;-67
2023/09/05 13:21:22;;;;;;;;;;;31.30;1.00;;;;;;4941935;29;20387;-67
2023/09/05 13:23:48;;;;;;;;;;;31.40;1.00;;;;;;4939799;29;20292;-66
2023/09/05 13:26:13;;;;;;;;;;;31.50;1.00;;;;;;4938533;29;19930;-67
2023/09/05 13:28:39;;;;;;;;;;;31.50;1.00;;;;;;4938838;29;20013;-66
2023/09/05 13:31:05;;;;;;;;;;;31.70;1.00;;;;;;4938161;28;19926;-68
2023/09/05 13:33:30;;;;;;;;;;;31.30;1.00;;;;;;4939157;29;19922;-66
2023/09/05 13:35:56;;;;;;;;;;;31.50;1.00;;;;;;4940073;29;20452;-65
2023/09/05 13:38:22;;;;;;;;;;;31.50;1.00;;;;;;4939309;28;19969;-67
2023/09/05 13:40:47;;;;;;;;;;;31.50;1.00;;;;;;4941223;28;20271;-65
2023/09/05 13:43:13;;;;;;;;;;;31.80;1.00;;;;;;4936456;29;19934;-67
2023/09/05 13:45:39;;;;;;;;;;;31.90;1.00;;;;;;4922487;29;20627;-67
2023/09/05 13:48:05;;;;;;;;;;;32.20;1.00;;;;;;4939240;29;19922;-66
2023/09/05 13:50:31;;;;;;;;;;;32.40;1.00;;;;;;4939093;29;19929;-66
2023/09/05 13:52:56;;;;;;;;;;;32.90;1.00;;;;;;4939104;29;20448;-67
2023/09/05 13:55:22;;;;;;;;;;;33.00;1.00;;;;;;4938701;29;19950;-67
2023/09/05 13:57:49;;;;;;;;;;;32.90;1.00;;;;;;4926718;29;19985;-66
2023/09/05 14:00:21;;;;;;;;;;;33.30;1.00;;;;;;4940397;28;19918;-66
2023/09/05 14:02:47;;;;;;;;;;;33.70;1.00;;;;;;4939623;28;19926;-67
2023/09/05 14:05:13;;;;;;;;;;;33.70;1.00;;;;;;4925529;29;19996;-67
2023/09/05 14:07:41;;;;;;;;;;;33.80;1.00;;;;;;4938884;29;19928;-66
2023/09/05 14:10:09;;;;;;;;;;;34.00;1.00;;;;;;4941551;29;19928;-67
2023/09/05 14:12:34;;;;;;;;;;;34.00;1.00;;;;;;4940213;29;19922;-67
2023/09/05 14:15:01;;;;;;;;;;;34.30;1.00;;;;;;4939616;29;20337;-67
2023/09/05 14:17:27;;;;;;;;;;;34.40;1.00;;;;;;4941054;28;19977;-67
2023/09/05 14:19:53;;;;;;;;;;;34.30;1.00;;;;;;4940803;29;19949;-67
2023/09/05 14:22:18;;;;;;;;;;;34.30;1.00;;;;;;4940761;29;19926;-67